Time;durP1;ratioP1;P1;durP2;ratioP2;P2;SDS_P1;SDS_P2;PMS_P1;PMS_P2;Temp;Humidity;BMP_temperature;BMP_pressure;BME280_temperature;BME280_humidity;BME280_pressure;Samples;Min_cycle;Max_cycle;Signal;HPM_P1;HPM_P2
2023/11/23 00:01:06;;;;;;;8.48;7.60;;;;;;;4.05;65.07;101285.63;10253393;28;20058;-63
2023/11/23 00:06:07;;;;;;;9.60;8.60;;;;;;;3.95;65.92;101281.59;10254141;28;20141;-64
2023/11/23 00:11:10;;;;;;;9.80;8.00;;;;;;;3.81;66.25;101264.53;10260740;28;20046;-63
2023/11/23 00:16:12;;;;;;;9.20;8.15;;;;;;;3.79;66.98;101262.88;10240662;28;20110;-62
2023/11/23 00:21:13;;;;;;;9.68;8.32;;;;;;;3.48;67.83;101238.50;10242938;28;20125;-63
2023/11/23 00:26:15;;;;;;;8.15;7.35;;;;;;;3.63;67.71;101262.56;10250420;28;20396;-62
2023/11/23 00:31:17;;;;;;;8.68;7.72;;;;;;;3.59;67.67;101256.56;10246501;28;20069;-62
2023/11/23 00:36:18;;;;;;;8.77;7.72;;;;;;;3.61;67.49;101259.97;10252127;28;20183;-63
2023/11/23 00:41:20;;;;;;;8.88;7.90;;;;;;;3.60;67.53;101254.75;10257537;28;20058;-63
2023/11/23 00:46:21;;;;;;;10.05;8.02;;;;;;;3.61;67.47;101254.72;10229620;28;20764;-63
2023/11/23 00:51:27;;;;;;;;;;;;;;;3.75;67.44;101262.09;10252413;28;20100;-61
2023/11/23 00:56:28;;;;;;;8.90;7.47;;;;;;;3.65;67.36;101227.38;10253256;28;19922;-63
2023/11/23 01:01:29;;;;;;;8.88;7.32;;;;;;;3.58;67.96;101227.63;10255753;28;20535;-63
2023/11/23 01:06:31;;;;;;;9.55;7.60;;;;;;;3.29;68.54;101219.00;10251939;28;20972;-62
2023/11/23 01:11:33;;;;;;;9.43;7.78;;;;;;;3.36;69.03;101238.91;10241721;28;20194;-63
2023/11/23 01:16:35;;;;;;;8.80;8.00;;;;;;;3.38;68.54;101242.38;10245754;28;20066;-62
2023/11/23 01:21:36;;;;;;;10.60;7.65;;;;;;;3.22;69.89;101230.66;10232549;28;20054;-60
2023/11/23 01:26:40;;;;;;;10.55;8.35;;;;;;;3.09;70.69;101240.72;10253674;28;20051;-65
2023/11/23 01:31:42;;;;;;;9.25;8.25;;;;;;;3.03;71.26;101226.00;10250843;28;20625;-60
2023/11/23 01:36:44;;;;;;;8.35;7.50;;;;;;;3.14;70.78;101239.66;10249949;28;20055;-62
2023/11/23 01:41:45;;;;;;;8.88;7.95;;;;;;;3.21;70.99;101227.13;10246540;28;20054;-62
2023/11/23 01:46:47;;;;;;;9.57;7.50;;;;;;;3.09;71.53;101220.56;10250290;28;20061;-63
2023/11/23 01:51:49;;;;;;;10.30;7.57;;;;;;;3.14;71.72;101223.03;10238536;28;20046;-62
2023/11/23 01:56:52;;;;;;;8.52;7.30;;;;;;;3.16;71.46;101200.97;10222410;28;20063;-62
2023/11/23 02:01:54;;;;;;;9.68;8.02;;;;;;;3.19;71.47;101195.63;10246985;28;20062;-62
2023/11/23 02:06:55;;;;;;;9.45;6.93;;;;;;;3.21;71.74;101198.19;10253664;28;20836;-63
2023/11/23 02:11:57;;;;;;;8.35;7.55;;;;;;;3.19;71.50;101184.25;10239728;28;20110;-62
2023/11/23 02:16:59;;;;;;;10.32;8.57;;;;;;;3.16;71.76;101206.25;10247565;28;20050;-63
2023/11/23 02:22:00;;;;;;;9.95;7.80;;;;;;;3.15;71.54;101217.69;10251691;28;20059;-62
2023/11/23 02:27:02;;;;;;;8.25;7.38;;;;;;;3.04;71.78;101206.66;10247467;28;20108;-63
2023/11/23 02:32:06;;;;;;;8.48;7.43;;;;;;;2.84;72.09;101178.44;10249398;28;20239;-63
2023/11/23 02:37:07;;;;;;;8.35;7.13;;;;;;;2.97;71.79;101195.50;10234410;28;20057;-62
2023/11/23 02:42:12;;;;;;;10.07;7.88;;;;;;;2.93;72.13;101190.41;10243497;28;20810;-61
2023/11/23 02:47:14;;;;;;;9.32;7.05;;;;;;;2.89;71.75;101170.38;10250702;28;20059;-62
2023/11/23 02:52:15;;;;;;;8.30;6.65;;;;;;;3.00;71.91;101178.75;10238139;28;20047;-65
2023/11/23 02:57:17;;;;;;;7.90;6.60;;;;;;;3.01;71.50;101159.44;10229721;28;20182;-62
2023/11/23 03:02:18;;;;;;;8.32;7.45;;;;;;;2.99;71.55;101175.25;10247287;28;20058;-63
2023/11/23 03:07:20;;;;;;;9.32;7.57;;;;;;;3.06;71.43;101175.91;10211947;28;20146;-63
2023/11/23 03:12:23;;;;;;;8.23;7.32;;;;;;;3.04;71.77;101174.25;10228163;28;20050;-62
2023/11/23 03:17:25;;;;;;;8.10;7.30;;;;;;;2.97;71.72;101160.44;10248183;28;20047;-62
2023/11/23 03:22:28;;;;;;;7.00;6.25;;;;;;;2.86;71.74;101144.19;10265423;28;20047;-62
2023/11/23 03:27:30;;;;;;;7.85;7.05;;;;;;;2.93;71.70;101145.69;10259738;28;20050;-63
2023/11/23 03:32:34;;;;;;;7.93;6.88;;;;;;;2.94;71.36;101140.38;10261332;28;20069;-62
2023/11/23 03:37:36;;;;;;;8.40;6.85;;;;;;;2.97;71.86;101139.41;10253163;28;20054;-62
2023/11/23 03:42:37;;;;;;;8.95;6.78;;;;;;;2.97;72.01;101142.03;10251860;28;20057;-63
2023/11/23 03:47:39;;;;;;;8.57;7.10;;;;;;;3.11;71.45;101152.09;10251019;28;20070;-64
2023/11/23 03:52:40;;;;;;;8.30;6.32;;;;;;;3.09;71.50;101152.16;10203964;28;20126;-62
2023/11/23 03:57:43;;;;;;;7.25;6.35;;;;;;;3.07;71.70;101132.91;10254677;28;20121;-62
2023/11/23 04:02:46;;;;;;;7.63;6.80;;;;;;;3.12;71.76;101141.50;10228521;28;20103;-62
2023/11/23 04:07:47;;;;;;;7.32;6.38;;;;;;;3.16;71.78;101145.72;10224921;28;20133;-63
2023/11/23 04:12:49;;;;;;;7.13;6.43;;;;;;;3.18;70.99;101141.28;10255462;28;20053;-63
2023/11/23 04:17:52;;;;;;;8.90;7.43;;;;;;;2.96;71.62;101121.91;10252961;28;20054;-62
2023/11/23 04:22:54;;;;;;;7.97;7.05;;;;;;;2.96;72.36;101127.19;10255753;28;20055;-63
2023/11/23 04:27:57;;;;;;;9.35;7.20;;;;;;;2.97;72.82;101126.25;10243131;28;21286;-61
2023/11/23 04:33:00;;;;;;;9.00;6.78;;;;;;;3.12;72.51;101125.72;10233208;28;20062;-64
2023/11/23 04:38:04;;;;;;;8.63;7.72;;;;;;;3.18;71.99;101109.72;10253449;28;20051;-61
2023/11/23 04:43:05;;;;;;;8.02;7.00;;;;;;;3.31;72.55;101111.91;10251329;28;20059;-63
2023/11/23 04:48:07;;;;;;;10.15;7.72;;;;;;;3.14;72.40;101110.72;10253519;28;20070;-63
2023/11/23 04:53:08;;;;;;;7.72;6.80;;;;;;;3.06;73.32;101099.59;10256126;28;20058;-63
2023/11/23 04:58:11;;;;;;;9.10;6.85;;;;;;;3.02;73.14;101074.34;10233244;28;20146;-62
2023/11/23 05:03:13;;;;;;;9.10;7.50;;;;;;;3.16;73.12;101111.53;10249444;28;20323;-62
2023/11/23 05:08:15;;;;;;;8.55;6.72;;;;;;;3.10;73.58;101098.59;10251104;28;20043;-62
2023/11/23 05:13:17;;;;;;;10.23;8.38;;;;;;;3.13;73.96;101100.25;10251149;28;20157;-62
2023/11/23 05:18:18;;;;;;;10.32;8.40;;;;;;;3.21;73.92;101092.09;10254572;28;20054;-62
2023/11/23 05:23:20;;;;;;;11.02;7.70;;;;;;;3.38;73.63;101099.34;10246014;28;20054;-63
2023/11/23 05:28:21;;;;;;;8.60;7.60;;;;;;;3.17;73.36;101097.47;10255621;28;20129;-63
2023/11/23 05:33:23;;;;;;;7.70;6.78;;;;;;;3.24;73.48;101107.78;10253545;28;20050;-64
2023/11/23 05:38:26;;;;;;;8.85;7.88;;;;;;;3.22;73.82;101086.78;10237033;28;20109;-63
2023/11/23 05:43:27;;;;;;;7.57;6.50;;;;;;;3.33;73.81;101102.16;10252333;28;20095;-62
2023/11/23 05:48:29;;;;;;;9.25;7.03;;;;;;;3.36;74.08;101096.78;10251559;28;20070;-63
2023/11/23 05:53:30;;;;;;;8.65;7.32;;;;;;;3.30;74.50;101102.28;10219404;28;20120;-61
2023/11/23 05:58:32;;;;;;;10.23;7.97;;;;;;;3.21;74.88;101090.31;10247105;28;20086;-61
2023/11/23 06:03:34;;;;;;;8.73;7.82;;;;;;;3.15;75.30;101083.53;10209956;28;20163;-62
2023/11/23 06:08:35;;;;;;;8.25;6.68;;;;;;;3.07;76.05;101082.91;10218635;28;20062;-63
2023/11/23 06:13:37;;;;;;;9.30;7.07;;;;;;;3.17;76.06;101080.84;10232008;28;20743;-63
2023/11/23 06:18:39;;;;;;;7.75;6.82;;;;;;;3.20;75.75;101075.47;10218462;28;20661;-64
2023/11/23 06:23:43;;;;;;;10.52;7.60;;;;;;;3.17;75.52;101058.00;10219442;28;20055;-62
2023/11/23 06:28:47;;;;;;;8.45;7.32;;;;;;;3.14;76.07;101055.47;10232452;28;20050;-61
2023/11/23 06:33:50;;;;;;;8.32;7.28;;;;;;;3.19;76.02;101053.53;10219365;28;20050;-62
2023/11/23 06:38:51;;;;;;;7.15;6.40;;;;;;;3.22;76.06;101043.81;10212590;28;20101;-63
2023/11/23 06:43:53;;;;;;;9.40;7.82;;;;;;;3.20;76.20;101051.78;10248403;28;20651;-62
2023/11/23 06:48:56;;;;;;;7.38;6.32;;;;;;;3.26;75.79;101063.81;10230654;28;20517;-62
2023/11/23 06:53:59;;;;;;;7.78;6.35;;;;;;;3.30;75.75;101086.47;10232763;28;20648;-62
2023/11/23 06:59:01;;;;;;;8.63;6.97;;;;;;;3.39;75.54;101070.34;10239044;28;20133;-61
2023/11/23 07:04:04;;;;;;;7.85;6.85;;;;;;;3.41;75.79;101071.16;10239053;28;20051;-61
2023/11/23 07:09:06;;;;;;;10.82;6.35;;;;;;;3.49;75.48;101082.25;10231261;28;20065;-65
2023/11/23 07:14:09;;;;;;;7.70;6.40;;;;;;;3.47;75.31;101063.03;10245093;28;20831;-63
2023/11/23 07:19:11;;;;;;;9.73;6.60;;;;;;;3.42;76.38;101051.81;10244976;28;21212;-61
2023/11/23 07:24:12;;;;;;;8.65;6.47;;;;;;;3.40;76.09;101071.22;10204061;28;20156;-64
2023/11/23 07:29:15;;;;;;;7.45;6.38;;;;;;;3.44;76.27;101068.41;10219033;28;20585;-63
2023/11/23 07:34:17;;;;;;;8.65;6.50;;;;;;;3.31;76.17;101038.22;10247680;28;20050;-61
2023/11/23 07:39:20;;;;;;;9.45;6.22;;;;;;;3.36;76.64;101054.66;10240314;28;20051;-62
2023/11/23 07:44:21;;;;;;;7.00;6.13;;;;;;;3.54;76.19;101054.00;10247896;28;20053;-61
2023/11/23 07:49:23;;;;;;;8.07;6.97;;;;;;;3.54;76.32;101058.38;10247281;28;20076;-63
2023/11/23 07:54:24;;;;;;;10.07;6.90;;;;;;;3.57;76.02;101046.88;10220835;28;20167;-62
2023/11/23 07:59:26;;;;;;;8.00;6.78;;;;;;;3.61;76.44;101048.50;10248928;28;20098;-61
2023/11/23 08:04:28;;;;;;;8.93;6.85;;;;;;;3.64;76.50;101022.03;10253982;28;20084;-61
2023/11/23 08:09:29;;;;;;;8.75;6.85;;;;;;;3.59;76.58;101034.50;10241341;28;20061;-62
2023/11/23 08:14:31;;;;;;;14.00;6.90;;;;;;;3.73;76.58;101042.75;10252909;28;20066;-64
2023/11/23 08:19:33;;;;;;;9.77;7.20;;;;;;;3.77;76.34;101030.28;10250248;28;20472;-63
2023/11/23 08:24:35;;;;;;;7.85;6.65;;;;;;;3.84;76.14;101019.47;10233622;28;20172;-62
2023/11/23 08:29:38;;;;;;;9.50;7.50;;;;;;;4.03;76.16;101031.91;10254133;28;20061;-62
2023/11/23 08:34:39;;;;;;;12.23;7.95;;;;;;;4.04;75.63;101020.44;10253190;28;20259;-62
2023/11/23 08:39:44;;;;;;;13.90;7.80;;;;;;;4.03;76.46;101018.72;10247945;28;20101;-61
2023/11/23 08:44:47;;;;;;;8.60;7.25;;;;;;;4.04;76.12;101020.44;10241585;28;20050;-62
2023/11/23 08:49:50;;;;;;;8.68;7.15;;;;;;;4.16;75.91;101019.06;10252210;28;20507;-61
2023/11/23 08:54:51;;;;;;;11.63;8.52;;;;;;;4.20;76.13;101016.25;10237266;28;20050;-60
2023/11/23 08:59:52;;;;;;;9.50;8.20;;;;;;;4.21;75.93;101020.59;10205845;28;20907;-64
2023/11/23 09:04:54;;;;;;;8.98;7.60;;;;;;;4.22;76.16;101019.69;10248505;28;20051;-61
2023/11/23 09:09:56;;;;;;;10.13;7.40;;;;;;;4.30;76.15;101005.31;10205086;28;20052;-62
2023/11/23 09:14:58;;;;;;;12.10;8.25;;;;;;;4.36;76.29;100997.16;10238671;28;20067;-60
2023/11/23 09:20:00;;;;;;;9.18;7.50;;;;;;;4.40;75.71;100994.31;10238320;28;20403;-62
2023/11/23 09:25:03;;;;;;;9.63;7.25;;;;;;;4.41;76.02;100987.25;10246136;28;20065;-61
2023/11/23 09:30:06;;;;;;;11.05;8.30;;;;;;;4.50;75.71;100984.22;10239759;28;20165;-62
2023/11/23 09:35:10;;;;;;;12.27;8.15;;;;;;;4.57;75.84;100988.31;10224913;28;20055;-63
2023/11/23 09:40:17;;;;;;;8.63;7.00;;;;;;;4.76;75.21;100992.78;10246951;28;20142;-62
2023/11/23 09:45:20;;;;;;;9.88;7.82;;;;;;;4.98;74.84;100978.63;10238850;28;20826;-63
2023/11/23 09:50:27;;;;;;;8.88;7.97;;;;;;;5.23;74.28;100999.47;10226957;28;20257;-62
2023/11/23 09:55:30;;;;;;;10.50;8.00;;;;;;;5.19;73.62;100974.97;10196512;28;20050;-62
2023/11/23 10:00:35;;;;;;;8.70;6.57;;;;;;;5.37;73.40;100953.94;10245230;28;20093;-62
2023/11/23 10:05:41;;;;;;;11.02;7.57;;;;;;;5.64;73.13;100963.19;10248386;28;20062;-61
2023/11/23 10:10:42;;;;;;;10.05;8.02;;;;;;;5.48;73.04;100930.53;10229728;28;20137;-64
2023/11/23 10:15:44;;;;;;;9.68;7.65;;;;;;;5.53;73.52;100919.75;10243872;28;20137;-61
2023/11/23 10:20:46;;;;;;;11.68;8.30;;;;;;;5.68;73.68;100939.25;10240668;28;20051;-62
2023/11/23 10:25:49;;;;;;;10.40;7.43;;;;;;;5.69;74.00;100935.66;10231516;28;20071;-61
2023/11/23 10:30:51;;;;;;;11.55;7.95;;;;;;;5.72;74.50;100930.25;10225863;28;20085;-62
2023/11/23 10:35:55;;;;;;;9.10;7.03;;;;;;;5.82;74.26;100913.00;10240440;28;20047;-62
2023/11/23 10:40:56;;;;;;;10.70;7.13;;;;;;;5.98;73.60;100906.03;10241519;28;20136;-63
2023/11/23 10:46:00;;;;;;;11.93;8.25;;;;;;;5.99;73.63;100906.88;10219595;28;20200;-62
2023/11/23 10:51:03;;;;;;;10.02;8.43;;;;;;;5.97;74.26;100893.75;10225477;28;20063;-62
2023/11/23 10:56:10;;;;;;;10.43;8.43;;;;;;;5.98;74.20;100871.69;10244617;28;20047;-63
2023/11/23 11:01:21;;;;;;;8.57;7.60;;;;;;;6.04;73.90;100856.47;10246003;28;20051;-62
2023/11/23 11:06:23;;;;;;;11.00;9.02;;;;;;;6.09;74.19;100849.13;10243009;28;20054;-63
2023/11/23 11:11:26;;;;;;;11.38;7.93;;;;;;;6.07;74.47;100832.50;10221125;28;20084;-64
2023/11/23 11:16:33;;;;;;;9.82;8.70;;;;;;;6.06;75.53;100801.72;10247287;28;20051;-62
2023/11/23 11:21:48;;;;;;;10.13;7.93;;;;;;;6.08;75.45;100842.13;10223369;28;20424;-61
2023/11/23 11:26:50;;;;;;;8.85;7.85;;;;;;;5.98;75.74;100826.75;10244752;28;20606;-61
2023/11/23 11:31:52;;;;;;;8.85;7.65;;;;;;;5.98;76.13;100810.91;10247137;28;20188;-62
2023/11/23 11:37:05;;;;;;;9.57;7.50;;;;;;;6.14;76.44;100804.78;10248039;28;20135;-63
2023/11/23 11:42:10;;;;;;;10.85;8.20;;;;;;;6.27;75.94;100811.13;10223910;28;20045;-63
2023/11/23 11:47:12;;;;;;;10.23;8.50;;;;;;;6.04;76.17;100756.88;10253982;28;20082;-61
2023/11/23 11:52:15;;;;;;;10.48;7.93;;;;;;;6.27;76.77;100782.06;10252089;28;20042;-62
2023/11/23 11:57:18;;;;;;;10.73;8.32;;;;;;;6.32;76.77;100768.59;10252520;28;20059;-61
2023/11/23 12:02:19;;;;;;;10.35;7.75;;;;;;;6.32;76.78;100761.53;10252606;28;20059;-62
2023/11/23 12:07:21;;;;;;;11.35;7.85;;;;;;;6.11;76.85;100715.09;10257914;28;20055;-63
2023/11/23 12:12:22;;;;;;;11.25;7.93;;;;;;;6.51;77.24;100757.84;10238534;28;20128;-61
2023/11/23 12:17:24;;;;;;;13.07;7.70;;;;;;;6.47;77.97;100745.72;10236974;28;20508;-62
2023/11/23 12:22:26;;;;;;;10.48;8.23;;;;;;;6.45;78.60;100718.53;10253253;28;20067;-61
2023/11/23 12:27:30;;;;;;;9.18;7.07;;;;;;;6.53;79.23;100705.72;10239125;28;20432;-61
2023/11/23 12:32:32;;;;;;;11.45;8.73;;;;;;;6.58;80.00;100686.97;10247533;28;20051;-63
2023/11/23 12:37:34;;;;;;;13.13;8.90;;;;;;;6.63;80.75;100701.63;10248891;28;20050;-62
2023/11/23 12:42:35;;;;;;;11.32;9.07;;;;;;;6.75;80.41;100699.22;10223092;28;20047;-62
2023/11/23 12:47:37;;;;;;;43.35;29.30;;;;;;;6.79;80.92;100679.59;10249589;28;20062;-62
2023/11/23 12:52:39;;;;;;;55.03;34.67;;;;;;;6.74;82.40;100650.75;10251191;28;20074;-62
2023/11/23 12:57:42;;;;;;;15.00;9.18;;;;;;;6.50;83.16;100629.19;10228397;28;20126;-63
2023/11/23 13:02:45;;;;;;;25.08;17.13;;;;;;;6.78;83.76;100677.88;10202769;28;20544;-62
2023/11/23 13:07:47;;;;;;;14.73;10.40;;;;;;;6.79;84.07;100655.78;10251634;28;20122;-62
2023/11/23 13:12:54;;;;;;;13.57;10.05;;;;;;;6.87;84.43;100650.88;10222111;28;20055;-64
2023/11/23 13:17:56;;;;;;;12.13;9.27;;;;;;;6.81;84.81;100630.06;10244484;28;20064;-61
2023/11/23 13:23:02;;;;;;;16.73;11.68;;;;;;;6.91;84.79;100636.53;10214706;28;20077;-62
2023/11/23 13:28:05;;;;;;;13.80;9.75;;;;;;;6.99;84.88;100628.13;10247396;28;20998;-62
2023/11/23 13:33:12;;;;;;;13.02;9.50;;;;;;;6.95;85.57;100605.44;10236757;28;20758;-62
2023/11/23 13:38:15;;;;;;;13.32;9.65;;;;;;;7.04;85.16;100611.03;10234927;28;20136;-60
2023/11/23 13:43:18;;;;;;;19.38;13.60;;;;;;;7.10;85.01;100608.94;10237285;28;20065;-62
2023/11/23 13:48:22;;;;;;;11.73;9.40;;;;;;;7.14;85.38;100615.78;10249292;28;20051;-62
2023/11/23 13:53:25;;;;;;;14.23;9.20;;;;;;;7.11;85.29;100598.28;10224701;28;20133;-59
2023/11/23 13:58:29;;;;;;;108.90;62.53;;;;;;;7.13;85.55;100577.88;10247625;28;20066;-61
2023/11/23 14:03:32;;;;;;;11.57;9.38;;;;;;;7.08;86.16;100567.53;10220308;28;20089;-59
2023/11/23 14:08:35;;;;;;;47.13;38.45;;;;;;;7.01;86.90;100558.28;10245990;28;20200;-62
2023/11/23 14:13:37;;;;;;;11.65;8.75;;;;;;;7.04;86.95;100547.50;10251903;28;20042;-62
2023/11/23 14:18:41;;;;;;;13.98;10.63;;;;;;;7.10;86.71;100538.34;10248809;28;20514;-62
2023/11/23 14:23:48;;;;;;;11.18;8.80;;;;;;;7.15;86.82;100532.75;10225514;28;20050;-62
2023/11/23 14:28:50;;;;;;;11.82;9.48;;;;;;;7.11;87.32;100528.59;10243707;28;20058;-61
2023/11/23 14:33:56;;;;;;;13.20;9.65;;;;;;;7.05;87.26;100500.69;10248357;28;20051;-62
2023/11/23 14:38:58;;;;;;;18.27;14.07;;;;;;;7.11;88.09;100499.47;10243259;28;20050;-62
2023/11/23 14:44:01;;;;;;;12.77;10.30;;;;;;;7.15;88.16;100496.53;10221652;28;20059;-64
2023/11/23 14:49:05;;;;;;;43.28;29.23;;;;;;;7.29;87.68;100484.25;10252856;28;20067;-62
2023/11/23 14:54:11;;;;;;;14.48;11.55;;;;;;;7.34;87.54;100467.13;10246439;28;20051;-62
2023/11/23 14:59:16;;;;;;;11.35;7.75;;;;;;;7.20;88.76;100475.06;10236784;28;20173;-64
2023/11/23 15:04:18;;;;;;;19.90;17.80;;;;;;;7.24;88.92;100473.94;10241078;28;20098;-62
2023/11/23 15:09:20;;;;;;;13.27;11.32;;;;;;;7.31;88.63;100459.38;10246833;28;20060;-62
2023/11/23 15:14:22;;;;;;;9.20;8.05;;;;;;;7.42;88.74;100477.22;10206185;28;20062;-63
2023/11/23 15:19:25;;;;;;;12.13;10.80;;;;;;;7.47;89.04;100463.69;10246528;28;20603;-61
2023/11/23 15:24:27;;;;;;;11.70;9.23;;;;;;;7.46;89.58;100454.03;10249865;28;20050;-63
2023/11/23 15:29:29;;;;;;;10.82;9.00;;;;;;;7.42;89.67;100448.94;10253703;28;20055;-63
2023/11/23 15:34:33;;;;;;;10.15;8.93;;;;;;;7.53;89.64;100447.38;10223892;28;20241;-64
2023/11/23 15:39:34;;;;;;;17.63;15.10;;;;;;;7.58;89.55;100434.69;10239138;28;20054;-64
2023/11/23 15:44:38;;;;;;;10.50;9.30;;;;;;;7.29;90.10;100395.03;10227539;28;20043;-63
2023/11/23 15:49:41;;;;;;;11.20;8.10;;;;;;;7.55;89.64;100434.88;10225442;28;20504;-63
2023/11/23 15:54:43;;;;;;;10.77;9.48;;;;;;;7.54;90.14;100422.59;10229888;28;20634;-63
2023/11/23 15:59:44;;;;;;;10.43;8.40;;;;;;;7.55;90.23;100419.84;10233508;28;20144;-63
2023/11/23 16:04:46;;;;;;;11.32;8.93;;;;;;;7.58;90.00;100424.94;10237105;28;20655;-61
2023/11/23 16:09:49;;;;;;;11.63;8.68;;;;;;;7.60;90.19;100422.19;10249529;28;20066;-62
2023/11/23 16:14:51;;;;;;;13.55;9.57;;;;;;;7.58;90.46;100408.19;10213872;28;20452;-63
2023/11/23 16:19:55;;;;;;;11.07;9.98;;;;;;;7.47;90.95;100421.31;10208272;28;20535;-64
2023/11/23 16:24:58;;;;;;;11.82;8.68;;;;;;;7.50;90.88;100427.22;10245680;28;20628;-62
2023/11/23 16:30:00;;;;;;;13.50;10.70;;;;;;;7.57;90.69;100417.09;10241860;28;20059;-63
2023/11/23 16:35:06;;;;;;;12.82;9.57;;;;;;;7.57;91.13;100422.41;10240696;28;20519;-65
2023/11/23 16:40:10;;;;;;;11.13;8.82;;;;;;;7.57;91.19;100419.75;10246998;28;20164;-63
2023/11/23 16:45:13;;;;;;;13.40;9.75;;;;;;;7.62;91.08;100420.28;10233184;28;20058;-64
2023/11/23 16:50:14;;;;;;;12.85;10.80;;;;;;;7.59;91.72;100397.50;10233424;28;20058;-62
2023/11/23 16:55:16;;;;;;;12.55;10.35;;;;;;;7.62;91.85;100391.16;10254124;28;20047;-63
2023/11/23 17:00:17;;;;;;;11.65;10.45;;;;;;;7.46;92.64;100377.22;10252185;28;20619;-64
2023/11/23 17:05:22;;;;;;;12.48;10.32;;;;;;;7.38;93.02;100338.00;10237180;28;20241;-62
2023/11/23 17:10:24;;;;;;;12.57;10.40;;;;;;;7.57;92.97;100374.72;10247951;28;20057;-63
2023/11/23 17:15:26;;;;;;;12.77;10.45;;;;;;;7.55;93.24;100368.66;10245396;28;20053;-63
2023/11/23 17:20:28;;;;;;;11.93;10.25;;;;;;;7.64;92.94;100351.31;10250490;28;20058;-63
2023/11/23 17:25:38;;;;;;;12.25;10.95;;;;;;;7.59;93.75;100341.00;10232990;28;20054;-64
2023/11/23 17:30:41;;;;;;;13.00;11.27;;;;;;;7.53;94.46;100342.25;10227190;28;20058;-62
2023/11/23 17:35:44;;;;;;;14.60;11.55;;;;;;;7.63;94.52;100342.53;10219653;28;20832;-63
2023/11/23 17:40:45;;;;;;;16.90;11.57;;;;;;;7.47;95.29;100320.66;10248620;28;20066;-63
2023/11/23 17:45:49;;;;;;;12.10;10.77;;;;;;;7.64;95.13;100335.41;10248540;28;20094;-64
2023/11/23 17:50:50;;;;;;;14.68;11.38;;;;;;;7.57;95.72;100322.56;10243100;28;20194;-63
2023/11/23 17:55:52;;;;;;;12.38;10.48;;;;;;;7.63;96.14;100321.31;10243031;28;21246;-64
2023/11/23 18:00:56;;;;;;;13.93;11.32;;;;;;;7.54;97.49;100303.41;10211416;28;20053;-65
2023/11/23 18:05:59;;;;;;;12.48;10.95;;;;;;;7.67;96.98;100298.97;10221853;28;20050;-64
2023/11/23 18:11:02;;;;;;;13.23;10.45;;;;;;;7.71;97.47;100291.66;10233424;28;20079;-63
2023/11/23 18:16:05;;;;;;;13.55;11.20;;;;;;;7.79;98.12;100279.59;10236734;28;20058;-62
2023/11/23 18:21:06;;;;;;;14.18;10.70;;;;;;;7.82;98.13;100278.53;10247754;28;20061;-63
2023/11/23 18:26:09;;;;;;;13.00;10.23;;;;;;;7.75;98.80;100254.25;10245366;28;20057;-63
2023/11/23 18:31:11;;;;;;;15.48;11.77;;;;;;;7.70;100.00;100253.72;10232904;28;20085;-64
2023/11/23 18:36:12;;;;;;;10.85;9.38;;;;;;;7.69;100.00;100244.06;10246404;28;20416;-63
2023/11/23 18:41:14;;;;;;;12.48;11.18;;;;;;;7.70;100.00;100221.94;10223074;28;20054;-63
2023/11/23 18:46:18;;;;;;;11.48;10.27;;;;;;;7.68;100.00;100209.72;10242311;28;20050;-64
2023/11/23 18:51:19;;;;;;;11.98;10.70;;;;;;;7.65;100.00;100196.69;10250351;28;20051;-63
2023/11/23 18:56:20;;;;;;;12.32;10.68;;;;;;;7.49;100.00;100192.47;10255767;28;20065;-64
2023/11/23 19:01:22;;;;;;;12.00;10.75;;;;;;;7.49;100.00;100181.88;10177213;28;20050;-64
2023/11/23 19:06:24;;;;;;;13.07;11.57;;;;;;;7.44;100.00;100157.47;10205049;28;20082;-63
2023/11/23 19:11:25;;;;;;;14.60;11.52;;;;;;;7.48;100.00;100179.34;10211959;28;20051;-64
2023/11/23 19:16:30;;;;;;;14.48;11.45;;;;;;;7.46;100.00;100152.09;10233211;28;20050;-63
2023/11/23 19:21:32;;;;;;;;;;;;;;;7.46;100.00;100154.72;10222633;28;20103;-64
2023/11/23 19:26:35;;;;;;;12.48;10.88;;;;;;;7.46;100.00;100170.63;10207748;28;19950;-63
2023/11/23 19:31:37;;;;;;;11.98;10.60;;;;;;;7.56;100.00;100180.47;10205392;28;20087;-63
2023/11/23 19:36:39;;;;;;;12.60;10.07;;;;;;;7.57;100.00;100153.03;10193925;28;20054;-64
2023/11/23 19:41:44;;;;;;;14.77;12.32;;;;;;;7.64;100.00;100161.41;10218804;28;20161;-64
2023/11/23 19:46:46;;;;;;;13.70;11.43;;;;;;;7.59;100.00;100147.63;10236116;28;20065;-65
2023/11/23 19:51:49;;;;;;;12.13;10.82;;;;;;;7.74;100.00;100151.84;10240984;28;20628;-63
2023/11/23 19:56:52;;;;;;;15.10;11.40;;;;;;;7.89;100.00;100157.03;10240752;28;20400;-63
2023/11/23 20:01:55;;;;;;;12.73;11.07;;;;;;;7.92;100.00;100156.81;10227075;28;20059;-63
2023/11/23 20:07:03;;;;;;;12.15;10.20;;;;;;;7.77;100.00;100148.97;10248232;28;20153;-61
2023/11/23 20:12:05;;;;;;;14.15;11.13;;;;;;;7.60;100.00;100125.50;10235484;28;20133;-64
2023/11/23 20:17:06;;;;;;;13.02;11.32;;;;;;;7.69;100.00;100127.50;10254440;28;20149;-64
2023/11/23 20:22:09;;;;;;;11.70;9.98;;;;;;;7.64;100.00;100120.81;10250303;28;20063;-64
2023/11/23 20:27:11;;;;;;;12.15;10.57;;;;;;;7.73;100.00;100107.78;10241151;28;20063;-63
2023/11/23 20:32:13;;;;;;;10.65;9.25;;;;;;;7.78;100.00;100087.09;10228649;28;20046;-63
2023/11/23 20:37:15;;;;;;;11.50;9.65;;;;;;;7.74;100.00;100064.41;10239383;28;20054;-64
2023/11/23 20:42:16;;;;;;;11.45;9.18;;;;;;;7.67;100.00;100047.28;10216787;28;20074;-63
2023/11/23 20:47:19;;;;;;;9.80;8.88;;;;;;;7.81;100.00;100042.75;10227260;28;20114;-63
2023/11/23 20:52:21;;;;;;;9.32;8.10;;;;;;;7.86;100.00;100040.66;10251792;28;20085;-63
2023/11/23 20:57:38;;;;;;;8.68;7.80;;;;;;;7.91;100.00;100027.88;10198356;28;20055;-63
2023/11/23 21:02:40;;;;;;;10.75;8.00;;;;;;;7.97;100.00;100000.94;10238543;28;20057;-64
2023/11/23 21:07:43;;;;;;;8.48;7.40;;;;;;;8.00;100.00;99997.22;10251458;28;20058;-64
2023/11/23 21:12:46;;;;;;;8.77;7.47;;;;;;;8.07;100.00;99979.91;10215133;28;20103;-63
2023/11/23 21:17:47;;;;;;;8.77;7.88;;;;;;;8.08;100.00;99979.78;10239149;28;20054;-62
2023/11/23 21:22:51;;;;;;;9.35;7.03;;;;;;;8.18;100.00;99971.16;10233612;28;20050;-63
2023/11/23 21:27:54;;;;;;;7.60;6.70;;;;;;;8.22;100.00;99967.31;10248294;28;20059;-64
2023/11/23 21:32:55;;;;;;;9.30;8.32;;;;;;;8.23;100.00;99963.72;10238945;28;20058;-64
2023/11/23 21:37:57;;;;;;;10.35;8.90;;;;;;;8.26;100.00;99955.53;10232606;28;20055;-63
2023/11/23 21:42:59;;;;;;;9.27;7.75;;;;;;;8.30;100.00;99943.69;10255335;28;20054;-64
2023/11/23 21:48:00;;;;;;;8.10;7.30;;;;;;;8.27;100.00;99931.53;10251086;28;20051;-64
2023/11/23 21:53:03;;;;;;;9.60;8.10;;;;;;;8.36;100.00;99934.44;10228764;28;20061;-63
2023/11/23 21:58:04;;;;;;;9.02;8.15;;;;;;;8.37;100.00;99905.16;10250709;28;20500;-65
2023/11/23 22:03:06;;;;;;;9.73;8.25;;;;;;;8.38;100.00;99893.59;10254237;28;21804;-64
2023/11/23 22:08:08;;;;;;;9.73;7.78;;;;;;;8.40;100.00;99885.50;10239999;28;20053;-63
2023/11/23 22:13:09;;;;;;;9.95;7.95;;;;;;;8.41;100.00;99882.72;10252339;28;20134;-65
2023/11/23 22:18:11;;;;;;;9.52;8.52;;;;;;;8.36;100.00;99855.75;10250205;28;20492;-63
2023/11/23 22:23:13;;;;;;;8.85;7.85;;;;;;;8.40;100.00;99827.16;10247275;28;20623;-63
2023/11/23 22:28:15;;;;;;;10.25;8.95;;;;;;;8.35;100.00;99808.09;10243736;28;20535;-62
2023/11/23 22:33:17;;;;;;;10.63;8.40;;;;;;;8.46;100.00;99827.53;10211123;28;20056;-62
2023/11/23 22:38:19;;;;;;;9.52;8.52;;;;;;;8.49;100.00;99811.38;10231915;28;20063;-63
2023/11/23 22:43:21;;;;;;;9.82;8.77;;;;;;;8.46;100.00;99792.22;10237248;28;20141;-63
2023/11/23 22:48:23;;;;;;;9.20;8.10;;;;;;;8.44;100.00;99755.22;10251458;28;20058;-63
2023/11/23 22:53:24;;;;;;;8.80;7.90;;;;;;;8.67;100.00;99787.00;10235300;28;20062;-62
2023/11/23 22:58:26;;;;;;;9.32;7.32;;;;;;;8.72;100.00;99768.94;10223832;28;20046;-63
2023/11/23 23:03:30;;;;;;;8.38;7.47;;;;;;;8.81;100.00;99772.63;10245318;28;20126;-62
2023/11/23 23:08:32;;;;;;;9.13;7.28;;;;;;;8.87;100.00;99766.00;10250808;28;20197;-63
2023/11/23 23:13:34;;;;;;;6.97;6.00;;;;;;;8.85;100.00;99748.38;10224769;28;20061;-62